createdAt,value
2016-11-17T00:00:19.829Z,0
2016-11-17T00:00:52.156Z,0
2016-11-17T00:01:24.465Z,0
2016-11-17T00:01:56.772Z,0
2016-11-17T00:02:29.091Z,0
2016-11-17T00:03:01.391Z,0
2016-11-17T00:03:33.703Z,0
2016-11-17T00:04:06.022Z,0
2016-11-17T00:04:38.350Z,0
2016-11-17T00:05:10.700Z,0
2016-11-17T00:05:43.015Z,0
2016-11-17T00:06:15.338Z,0
2016-11-17T00:06:47.680Z,0
2016-11-17T00:07:19.996Z,0
2016-11-17T00:07:52.353Z,0
2016-11-17T00:08:24.675Z,0
2016-11-17T00:08:56.983Z,0
2016-11-17T00:09:29.294Z,0
2016-11-17T00:10:01.597Z,0
2016-11-17T00:10:33.921Z,0
2016-11-17T00:11:06.248Z,0
2016-11-17T00:11:38.591Z,0
2016-11-17T00:12:10.917Z,0
2016-11-17T00:12:43.215Z,0
2016-11-17T00:13:15.531Z,0
2016-11-17T00:13:47.849Z,0
2016-11-17T00:14:20.163Z,0
2016-11-17T00:14:52.472Z,0
2016-11-17T00:15:24.796Z,0
2016-11-17T00:15:57.121Z,0
2016-11-17T00:16:29.439Z,0
2016-11-17T00:17:01.762Z,0
2016-11-17T00:17:34.088Z,0
2016-11-17T00:18:06.408Z,0
2016-11-17T00:18:38.729Z,0
2016-11-17T00:19:11.057Z,0
2016-11-17T00:19:43.374Z,0
2016-11-17T00:20:15.684Z,0
2016-11-17T00:20:48.006Z,0
2016-11-17T00:21:20.332Z,0
2016-11-17T00:21:52.664Z,0
2016-11-17T00:22:24.989Z,0
2016-11-17T00:22:57.317Z,0
2016-11-17T00:23:29.630Z,0
2016-11-17T00:24:01.937Z,0
2016-11-17T00:24:34.263Z,0
2016-11-17T00:25:06.599Z,0
2016-11-17T00:25:38.925Z,0
2016-11-17T00:26:11.245Z,0
2016-11-17T00:26:43.551Z,0
2016-11-17T00:27:15.879Z,0
2016-11-17T00:27:48.193Z,0
2016-11-17T00:28:20.517Z,0
2016-11-17T00:28:52.847Z,0
2016-11-17T00:29:25.172Z,0
2016-11-17T00:29:57.485Z,0
2016-11-17T00:30:29.805Z,0
2016-11-17T00:31:02.132Z,0
2016-11-17T00:31:34.492Z,0
2016-11-17T00:32:06.819Z,0
2016-11-17T00:32:39.136Z,0
2016-11-17T00:33:11.449Z,0
2016-11-17T00:33:43.758Z,0
2016-11-17T00:34:16.084Z,0
2016-11-17T00:34:48.399Z,0
2016-11-17T00:35:20.711Z,0
2016-11-17T00:35:53.072Z,0
2016-11-17T00:36:25.366Z,0
2016-11-17T00:36:57.686Z,0
2016-11-17T00:37:30.008Z,0
2016-11-17T00:38:02.324Z,0
2016-11-17T00:38:34.656Z,0
2016-11-17T00:39:06.966Z,0
2016-11-17T00:39:39.292Z,0
2016-11-17T00:40:11.607Z,0
2016-11-17T00:40:43.929Z,0
2016-11-17T00:41:16.250Z,0
2016-11-17T00:41:48.568Z,0
2016-11-17T00:42:20.908Z,0
2016-11-17T00:42:53.236Z,0
2016-11-17T00:43:25.548Z,0
2016-11-17T00:43:57.867Z,0
2016-11-17T00:44:30.168Z,0
2016-11-17T00:45:02.489Z,0
2016-11-17T00:45:34.818Z,0
2016-11-17T00:46:07.140Z,0
2016-11-17T00:46:39.452Z,0
2016-11-17T00:47:11.777Z,0
2016-11-17T00:47:44.111Z,0
2016-11-17T00:48:16.459Z,0
2016-11-17T00:48:48.768Z,0
2016-11-17T00:49:21.091Z,0
2016-11-17T00:49:53.410Z,0
2016-11-17T00:50:25.731Z,0
2016-11-17T00:50:58.064Z,0
2016-11-17T00:51:30.366Z,0
2016-11-17T00:52:02.682Z,0
2016-11-17T00:52:34.994Z,0
2016-11-17T00:53:07.302Z,0
2016-11-17T00:53:39.623Z,0
2016-11-17T00:54:11.943Z,0
2016-11-17T00:54:44.263Z,0
2016-11-17T00:55:16.587Z,0
2016-11-17T00:55:48.924Z,0
2016-11-17T00:56:21.236Z,0
2016-11-17T00:56:53.543Z,0
2016-11-17T00:57:25.869Z,0
2016-11-17T00:57:58.195Z,0
2016-11-17T00:58:30.516Z,0
2016-11-17T00:59:02.841Z,0
2016-11-17T00:59:35.148Z,0
2016-11-17T01:00:07.458Z,0
2016-11-17T01:00:39.813Z,0
2016-11-17T01:01:12.125Z,0
2016-11-17T01:01:44.448Z,0
2016-11-17T01:02:16.769Z,0
2016-11-17T01:02:49.069Z,0
2016-11-17T01:03:21.417Z,0
2016-11-17T01:03:53.737Z,0
2016-11-17T01:04:26.055Z,0
2016-11-17T01:04:58.385Z,0
2016-11-17T01:05:30.700Z,0
2016-11-17T01:06:03.019Z,0
2016-11-17T01:06:35.376Z,0
2016-11-17T01:07:07.698Z,0
2016-11-17T01:07:40.024Z,0
2016-11-17T01:08:12.332Z,0
2016-11-17T01:08:44.654Z,0
2016-11-17T01:09:16.982Z,0
2016-11-17T01:09:49.307Z,0
2016-11-17T01:10:21.662Z,0
2016-11-17T01:10:53.975Z,0
2016-11-17T01:11:26.297Z,0
2016-11-17T01:11:58.613Z,0
2016-11-17T01:12:30.930Z,0
2016-11-17T01:13:03.261Z,0
2016-11-17T01:13:35.585Z,0
2016-11-17T01:14:07.902Z,0
2016-11-17T01:14:40.221Z,0
2016-11-17T01:15:12.546Z,0
2016-11-17T01:15:44.883Z,0
2016-11-17T01:16:17.207Z,0
2016-11-17T01:16:49.529Z,0
2016-11-17T01:17:21.863Z,0
2016-11-17T01:17:54.186Z,0
2016-11-17T01:18:26.485Z,0
2016-11-17T01:18:58.790Z,0
2016-11-17T01:19:31.102Z,0
2016-11-17T01:20:03.424Z,0
2016-11-17T01:20:35.736Z,0
2016-11-17T01:21:08.060Z,0
2016-11-17T01:21:40.383Z,0
2016-11-17T01:22:12.693Z,0
2016-11-17T01:22:45.001Z,0
2016-11-17T01:23:17.308Z,0
2016-11-17T01:23:49.623Z,0
2016-11-17T01:24:21.973Z,0
2016-11-17T01:24:54.307Z,0
2016-11-17T01:25:27.357Z,0
2016-11-17T01:25:59.708Z,0
2016-11-17T01:26:32.051Z,0
2016-11-17T01:27:04.367Z,0
2016-11-17T01:27:36.673Z,0
2016-11-17T01:28:08.981Z,0
2016-11-17T01:28:41.291Z,0
2016-11-17T01:29:13.626Z,0
2016-11-17T01:29:45.921Z,0
2016-11-17T01:30:18.252Z,0
2016-11-17T01:30:50.570Z,0
2016-11-17T01:31:22.888Z,0
2016-11-17T01:31:55.203Z,0
2016-11-17T01:32:27.521Z,0
2016-11-17T01:32:59.854Z,0
2016-11-17T01:33:32.178Z,0
2016-11-17T01:34:04.491Z,0
2016-11-17T01:34:36.810Z,0
2016-11-17T01:35:09.132Z,0
2016-11-17T01:35:41.447Z,0
2016-11-17T01:36:13.787Z,0
2016-11-17T01:36:46.115Z,0
2016-11-17T01:37:18.452Z,0
2016-11-17T01:37:50.783Z,0
2016-11-17T01:38:23.105Z,0
2016-11-17T01:38:55.454Z,0
2016-11-17T01:39:27.769Z,0
2016-11-17T01:40:00.094Z,0
2016-11-17T01:40:32.420Z,0
2016-11-17T01:41:04.763Z,0
2016-11-17T01:41:37.081Z,0
2016-11-17T01:42:09.405Z,0
2016-11-17T01:42:41.718Z,0
2016-11-17T01:43:14.037Z,0
2016-11-17T01:43:46.370Z,0
2016-11-17T01:44:18.708Z,0
2016-11-17T01:44:51.033Z,0
2016-11-17T01:45:23.351Z,0
2016-11-17T01:45:55.656Z,0
2016-11-17T01:46:27.982Z,0
2016-11-17T01:47:00.288Z,0
2016-11-17T01:47:32.631Z,0
2016-11-17T01:48:04.948Z,0
2016-11-17T01:48:37.256Z,0
2016-11-17T01:49:09.583Z,0
2016-11-17T01:49:41.909Z,0
2016-11-17T01:50:14.264Z,0
2016-11-17T01:50:46.574Z,0
2016-11-17T01:51:18.892Z,0
2016-11-17T01:51:51.211Z,0
2016-11-17T01:52:23.515Z,0
2016-11-17T01:52:55.846Z,0
2016-11-17T01:53:28.197Z,0
2016-11-17T01:54:00.516Z,0
2016-11-17T01:54:32.833Z,0
2016-11-17T01:55:05.156Z,0
2016-11-17T01:55:37.468Z,0
2016-11-17T01:56:09.794Z,0
2016-11-17T01:56:42.157Z,0
2016-11-17T01:57:14.482Z,0
2016-11-17T01:57:46.809Z,0
2016-11-17T01:58:19.115Z,0
2016-11-17T01:58:51.420Z,0
2016-11-17T01:59:23.722Z,0
2016-11-17T01:59:56.026Z,0
2016-11-17T02:00:28.338Z,0
2016-11-17T02:01:00.647Z,0
2016-11-17T02:01:32.982Z,0
2016-11-17T02:02:05.311Z,0
2016-11-17T02:02:37.617Z,0
2016-11-17T02:03:09.939Z,0
2016-11-17T02:03:42.262Z,0
2016-11-17T02:04:14.561Z,0
2016-11-17T02:04:46.875Z,0
2016-11-17T02:05:19.196Z,0
2016-11-17T02:05:51.514Z,0
2016-11-17T02:06:23.845Z,0
2016-11-17T02:06:56.200Z,0
2016-11-17T02:07:28.515Z,0
2016-11-17T02:08:00.829Z,0
2016-11-17T02:08:33.157Z,0
2016-11-17T02:09:05.490Z,0
2016-11-17T02:09:37.812Z,0
2016-11-17T02:10:10.128Z,0
2016-11-17T02:10:42.442Z,0
2016-11-17T02:11:14.760Z,0
2016-11-17T02:11:47.071Z,0
2016-11-17T02:12:19.388Z,0
2016-11-17T02:12:51.705Z,0
2016-11-17T02:13:24.031Z,0
2016-11-17T02:13:56.357Z,0
2016-11-17T02:14:28.681Z,0
2016-11-17T02:15:00.990Z,0
2016-11-17T02:15:33.308Z,0
2016-11-17T02:16:05.614Z,0
2016-11-17T02:16:37.925Z,0
2016-11-17T02:17:10.235Z,0
2016-11-17T02:17:42.581Z,0
2016-11-17T02:18:14.906Z,0
2016-11-17T02:18:47.221Z,0
2016-11-17T02:19:19.523Z,0
2016-11-17T02:19:51.848Z,0
2016-11-17T02:20:24.171Z,0
2016-11-17T02:20:56.481Z,0
2016-11-17T02:21:28.794Z,0
2016-11-17T02:22:01.108Z,0
2016-11-17T02:22:33.434Z,0
2016-11-17T02:23:05.748Z,0
2016-11-17T02:23:38.077Z,0
2016-11-17T02:24:10.387Z,0
2016-11-17T02:24:42.730Z,0
2016-11-17T02:25:15.059Z,0
2016-11-17T02:25:47.367Z,0
2016-11-17T02:26:19.687Z,0
2016-11-17T02:26:52.004Z,0
2016-11-17T02:27:24.317Z,0
2016-11-17T02:27:56.641Z,0
2016-11-17T02:28:28.957Z,0
2016-11-17T02:29:01.260Z,0
2016-11-17T02:29:33.592Z,0
2016-11-17T02:30:05.899Z,0
2016-11-17T02:30:38.203Z,0
2016-11-17T02:31:10.514Z,0
2016-11-17T02:31:42.834Z,0
2016-11-17T02:32:15.147Z,0
2016-11-17T02:32:47.463Z,0
2016-11-17T02:33:19.774Z,0
2016-11-17T02:33:52.102Z,0
2016-11-17T02:34:24.415Z,0
2016-11-17T02:34:56.736Z,0
2016-11-17T02:35:29.066Z,0
2016-11-17T02:36:01.380Z,0
2016-11-17T02:36:33.704Z,0
2016-11-17T02:37:06.030Z,0
2016-11-17T02:37:38.352Z,0
2016-11-17T02:38:10.669Z,0
2016-11-17T02:38:42.983Z,0
2016-11-17T02:39:15.290Z,0
2016-11-17T02:39:47.613Z,0
2016-11-17T02:40:19.954Z,0
2016-11-17T02:40:52.282Z,0
2016-11-17T02:41:24.613Z,0
2016-11-17T02:41:56.927Z,0
2016-11-17T02:42:29.245Z,0
2016-11-17T02:43:01.562Z,0
2016-11-17T02:43:33.880Z,0
2016-11-17T02:44:06.197Z,0
2016-11-17T02:44:38.515Z,0
2016-11-17T02:45:10.842Z,0
2016-11-17T02:45:43.159Z,0
2016-11-17T02:46:15.464Z,0
2016-11-17T02:46:47.795Z,0
2016-11-17T02:47:20.126Z,0
2016-11-17T02:47:52.435Z,0
2016-11-17T02:48:24.747Z,0
2016-11-17T02:48:57.073Z,0
2016-11-17T02:49:29.447Z,0
2016-11-17T02:50:01.768Z,0
2016-11-17T02:50:34.085Z,0
2016-11-17T02:51:06.390Z,0
2016-11-17T02:51:38.704Z,0
2016-11-17T02:52:11.020Z,0
2016-11-17T02:52:43.339Z,0
2016-11-17T02:53:15.688Z,0
2016-11-17T02:53:47.997Z,0
2016-11-17T02:54:20.321Z,0
2016-11-17T02:54:52.630Z,0
2016-11-17T02:55:24.950Z,0
2016-11-17T02:55:57.265Z,0
2016-11-17T02:56:29.568Z,0
2016-11-17T02:57:01.878Z,0
2016-11-17T02:57:34.203Z,0
2016-11-17T02:58:06.531Z,0
2016-11-17T02:58:38.884Z,0
2016-11-17T02:59:11.199Z,0
2016-11-17T02:59:43.517Z,0
2016-11-17T03:00:15.824Z,0
2016-11-17T03:00:48.148Z,0
2016-11-17T03:01:20.476Z,0
2016-11-17T03:01:52.798Z,0
2016-11-17T03:02:25.145Z,0
2016-11-17T03:02:57.457Z,0
2016-11-17T03:03:29.778Z,0
2016-11-17T03:04:02.106Z,0
2016-11-17T03:04:34.444Z,0
2016-11-17T03:05:06.753Z,0
2016-11-17T03:05:39.074Z,0
2016-11-17T03:06:11.400Z,0
2016-11-17T03:06:43.732Z,0
2016-11-17T03:07:16.058Z,0
2016-11-17T03:07:48.372Z,0
2016-11-17T03:08:20.701Z,0
2016-11-17T03:08:53.045Z,0
2016-11-17T03:09:25.363Z,0
2016-11-17T03:09:57.681Z,0
2016-11-17T03:10:29.979Z,0
2016-11-17T03:11:02.293Z,0
2016-11-17T03:11:34.613Z,0
2016-11-17T03:12:06.932Z,0
2016-11-17T03:12:39.242Z,0
2016-11-17T03:13:11.575Z,0
2016-11-17T03:13:43.884Z,0
2016-11-17T03:14:16.206Z,0
2016-11-17T03:14:48.524Z,0
2016-11-17T03:15:20.884Z,0
2016-11-17T03:15:53.195Z,0
2016-11-17T03:16:25.504Z,0
2016-11-17T03:16:57.826Z,0
2016-11-17T03:17:30.149Z,0
2016-11-17T03:18:02.474Z,0
2016-11-17T03:18:34.825Z,0
2016-11-17T03:19:07.137Z,0
2016-11-17T03:19:39.456Z,0
2016-11-17T03:20:11.777Z,0
2016-11-17T03:20:44.088Z,0
2016-11-17T03:21:16.395Z,0
2016-11-17T03:21:48.707Z,0
2016-11-17T03:22:21.027Z,0
2016-11-17T03:22:53.375Z,0
2016-11-17T03:23:25.694Z,0
2016-11-17T03:23:58.021Z,0
2016-11-17T03:24:30.344Z,0
2016-11-17T03:25:02.658Z,0
2016-11-17T03:25:34.966Z,0
2016-11-17T03:26:07.300Z,0
2016-11-17T03:26:39.615Z,0
2016-11-17T03:27:11.931Z,0
2016-11-17T03:27:44.244Z,0
2016-11-17T03:28:16.570Z,0
2016-11-17T03:28:48.875Z,0
2016-11-17T03:29:21.202Z,0
2016-11-17T03:29:53.520Z,0
2016-11-17T03:30:25.835Z,0
2016-11-17T03:30:58.167Z,0
2016-11-17T03:31:30.536Z,0
2016-11-17T03:32:02.854Z,0
2016-11-17T03:32:35.163Z,0
2016-11-17T03:33:07.490Z,0
2016-11-17T03:33:39.814Z,0
2016-11-17T03:34:12.143Z,0
2016-11-17T03:34:44.480Z,0
2016-11-17T03:35:16.780Z,0
2016-11-17T03:35:49.096Z,0
2016-11-17T03:36:21.414Z,0
2016-11-17T03:36:53.726Z,0
2016-11-17T03:37:26.038Z,0
2016-11-17T03:37:58.366Z,0
2016-11-17T03:38:30.694Z,0
2016-11-17T03:39:03.011Z,0
2016-11-17T03:39:35.315Z,0
2016-11-17T03:40:07.630Z,0
2016-11-17T03:40:39.988Z,0
2016-11-17T03:41:12.297Z,0
2016-11-17T03:41:44.623Z,0
2016-11-17T03:42:16.944Z,0
2016-11-17T03:42:49.292Z,0
2016-11-17T03:43:21.606Z,0
2016-11-17T03:43:53.936Z,0
2016-11-17T03:44:26.242Z,0
2016-11-17T03:44:58.559Z,0
2016-11-17T03:45:30.864Z,0
2016-11-17T03:46:03.180Z,0
2016-11-17T03:46:35.510Z,0
2016-11-17T03:47:07.838Z,0
2016-11-17T03:47:40.166Z,0
2016-11-17T03:48:12.480Z,0
2016-11-17T03:48:44.803Z,0
2016-11-17T03:49:17.148Z,0
2016-11-17T03:49:49.472Z,0
2016-11-17T03:50:21.781Z,0
2016-11-17T03:50:54.100Z,0
2016-11-17T03:51:26.456Z,0
2016-11-17T03:51:58.784Z,0
2016-11-17T03:52:31.098Z,0
2016-11-17T03:53:03.420Z,0
2016-11-17T03:53:35.752Z,0
2016-11-17T03:54:08.080Z,0
2016-11-17T03:54:40.411Z,0
2016-11-17T03:55:12.732Z,0
2016-11-17T03:55:45.046Z,0
2016-11-17T03:56:17.367Z,0
2016-11-17T03:56:49.687Z,0
2016-11-17T03:57:22.002Z,0
2016-11-17T03:57:54.317Z,0
2016-11-17T03:58:26.639Z,0
2016-11-17T03:58:58.960Z,0
2016-11-17T03:59:31.277Z,0
2016-11-17T04:00:03.605Z,0
2016-11-17T04:00:35.930Z,0
2016-11-17T04:01:08.257Z,0
2016-11-17T04:01:40.571Z,0
2016-11-17T04:02:12.896Z,0
2016-11-17T04:02:45.206Z,0
2016-11-17T04:03:17.517Z,0
2016-11-17T04:03:49.826Z,0
2016-11-17T04:04:22.157Z,0
2016-11-17T04:04:54.486Z,0
2016-11-17T04:05:26.810Z,0
2016-11-17T04:05:59.129Z,0
2016-11-17T04:06:31.460Z,0
2016-11-17T04:07:03.784Z,0
2016-11-17T04:07:36.105Z,0
2016-11-17T04:08:08.431Z,0
2016-11-17T04:08:40.743Z,0
2016-11-17T04:09:13.058Z,0
2016-11-17T04:09:45.373Z,0
2016-11-17T04:10:17.707Z,0
2016-11-17T04:10:50.044Z,0
2016-11-17T04:11:22.366Z,0
2016-11-17T04:11:54.660Z,0
2016-11-17T04:12:26.975Z,0
2016-11-17T04:12:59.289Z,0
2016-11-17T04:13:31.625Z,0
2016-11-17T04:14:03.941Z,0
2016-11-17T04:14:36.240Z,0
2016-11-17T04:15:08.555Z,0
2016-11-17T04:15:40.866Z,0
2016-11-17T04:16:13.214Z,0
2016-11-17T04:16:45.527Z,0
2016-11-17T04:17:17.833Z,0
2016-11-17T04:17:50.147Z,0
2016-11-17T04:18:22.481Z,0
2016-11-17T04:18:54.794Z,0
2016-11-17T04:19:27.108Z,0
2016-11-17T04:19:59.437Z,0
2016-11-17T04:20:31.760Z,0
2016-11-17T04:21:04.077Z,0
2016-11-17T04:21:36.396Z,0
2016-11-17T04:22:08.721Z,0
2016-11-17T04:22:41.034Z,0
2016-11-17T04:23:13.352Z,0
2016-11-17T04:23:45.672Z,0
2016-11-17T04:24:17.991Z,0
2016-11-17T04:24:50.311Z,0
2016-11-17T04:25:22.626Z,0
2016-11-17T04:25:54.953Z,0
2016-11-17T04:26:27.280Z,0
2016-11-17T04:26:59.600Z,0
2016-11-17T04:27:31.921Z,0
2016-11-17T04:28:04.237Z,0
2016-11-17T04:28:36.544Z,0
2016-11-17T04:29:08.879Z,0
2016-11-17T04:29:41.208Z,0
2016-11-17T04:30:13.524Z,0
2016-11-17T04:30:45.836Z,0
2016-11-17T04:31:18.153Z,0
2016-11-17T04:31:50.461Z,0
2016-11-17T04:32:22.793Z,0
2016-11-17T04:32:55.141Z,0
2016-11-17T04:33:27.463Z,0
2016-11-17T04:33:59.784Z,0
2016-11-17T04:34:32.112Z,0
2016-11-17T04:35:04.440Z,0
2016-11-17T04:35:36.757Z,0
2016-11-17T04:36:09.077Z,0
2016-11-17T04:36:41.402Z,0
2016-11-17T04:37:13.726Z,0
2016-11-17T04:37:46.051Z,0
2016-11-17T04:38:18.371Z,0
2016-11-17T04:38:50.696Z,0
2016-11-17T04:39:23.026Z,0
2016-11-17T04:39:55.338Z,0
2016-11-17T04:40:27.640Z,0
2016-11-17T04:40:59.958Z,0
2016-11-17T04:41:32.269Z,0
2016-11-17T04:42:04.587Z,0
2016-11-17T04:42:36.908Z,0
2016-11-17T04:43:09.221Z,0
2016-11-17T04:43:41.547Z,0
2016-11-17T04:44:13.852Z,0
2016-11-17T04:44:46.162Z,0
2016-11-17T04:45:18.467Z,0
2016-11-17T04:45:50.782Z,0
2016-11-17T04:46:23.107Z,0
2016-11-17T04:46:55.427Z,0
2016-11-17T04:47:27.741Z,0
2016-11-17T04:48:00.059Z,0
2016-11-17T04:48:32.373Z,0
2016-11-17T04:49:04.701Z,0
2016-11-17T04:49:37.015Z,0
2016-11-17T04:50:09.335Z,0
2016-11-17T04:50:41.660Z,0
2016-11-17T04:51:13.981Z,0
2016-11-17T04:51:46.293Z,0
2016-11-17T04:52:18.615Z,0
2016-11-17T04:52:50.933Z,0
2016-11-17T04:53:23.260Z,0
2016-11-17T04:53:55.580Z,0
2016-11-17T04:54:27.898Z,0
2016-11-17T04:55:00.216Z,0
2016-11-17T04:55:32.546Z,0
2016-11-17T04:56:04.868Z,0
2016-11-17T04:56:37.191Z,0
2016-11-17T04:57:09.522Z,0
2016-11-17T04:57:41.841Z,0
2016-11-17T04:58:14.166Z,0
2016-11-17T04:58:46.489Z,0
2016-11-17T04:59:18.817Z,0
2016-11-17T04:59:51.145Z,0
2016-11-17T05:00:23.472Z,0
2016-11-17T05:00:55.784Z,0
2016-11-17T05:01:28.106Z,0
2016-11-17T05:02:00.429Z,0
2016-11-17T05:02:32.730Z,0
2016-11-17T05:03:05.096Z,0
2016-11-17T05:03:37.408Z,0
2016-11-17T05:04:09.736Z,0
2016-11-17T05:04:42.058Z,0
2016-11-17T05:05:14.383Z,0
2016-11-17T05:05:46.699Z,0
2016-11-17T05:06:19.016Z,0
2016-11-17T05:06:51.336Z,0
2016-11-17T05:07:23.665Z,0
2016-11-17T05:07:55.964Z,0
2016-11-17T05:08:28.268Z,0
2016-11-17T05:09:00.591Z,0
2016-11-17T05:09:32.957Z,0
2016-11-17T05:10:05.327Z,0
2016-11-17T05:10:37.673Z,0
2016-11-17T05:11:10.003Z,0
2016-11-17T05:11:42.325Z,0
2016-11-17T05:12:14.640Z,0
2016-11-17T05:12:46.948Z,0
2016-11-17T05:13:19.275Z,0
2016-11-17T05:13:51.590Z,0
2016-11-17T05:14:23.906Z,0
2016-11-17T05:14:56.211Z,0
2016-11-17T05:15:28.547Z,0
2016-11-17T05:16:00.899Z,0
2016-11-17T05:16:33.217Z,0
2016-11-17T05:17:05.533Z,0
2016-11-17T05:17:37.848Z,0
2016-11-17T05:18:10.153Z,0
2016-11-17T05:18:42.460Z,0
2016-11-17T05:19:14.813Z,0
2016-11-17T05:19:47.128Z,0
2016-11-17T05:20:19.460Z,0
2016-11-17T05:20:51.808Z,0
2016-11-17T05:21:24.121Z,0
2016-11-17T05:21:56.450Z,0
2016-11-17T05:22:28.776Z,0
2016-11-17T05:23:01.094Z,0
2016-11-17T05:23:33.406Z,0
2016-11-17T05:24:05.718Z,0
2016-11-17T05:24:38.031Z,0
2016-11-17T05:25:10.319Z,0
2016-11-17T05:25:42.666Z,0
2016-11-17T05:26:14.997Z,0
2016-11-17T05:26:47.352Z,0
2016-11-17T05:27:19.699Z,0
2016-11-17T05:27:52.020Z,0
2016-11-17T05:28:24.337Z,0
2016-11-17T05:28:57.457Z,0
2016-11-17T05:29:29.772Z,0
2016-11-17T05:30:02.085Z,0
2016-11-17T05:30:34.411Z,0
2016-11-17T05:31:06.735Z,0
2016-11-17T05:31:39.047Z,0
2016-11-17T05:32:11.382Z,0
2016-11-17T05:32:43.704Z,0
2016-11-17T05:33:16.022Z,0
2016-11-17T05:33:48.350Z,0
2016-11-17T05:34:20.666Z,0
2016-11-17T05:34:52.986Z,0
2016-11-17T05:35:25.317Z,0
2016-11-17T05:35:57.626Z,0
2016-11-17T05:36:29.937Z,0
2016-11-17T05:37:02.263Z,0
2016-11-17T05:37:34.585Z,0
2016-11-17T05:38:06.884Z,0
2016-11-17T05:38:39.213Z,0
2016-11-17T05:39:11.528Z,0
2016-11-17T05:39:43.884Z,0
2016-11-17T05:40:16.203Z,0
2016-11-17T05:40:48.558Z,0
2016-11-17T05:41:20.874Z,0
2016-11-17T05:41:53.192Z,0
2016-11-17T05:42:25.511Z,0
2016-11-17T05:42:57.821Z,0
2016-11-17T05:43:30.150Z,0
2016-11-17T05:44:02.485Z,0
2016-11-17T05:44:34.793Z,0
2016-11-17T05:45:07.121Z,0
2016-11-17T05:45:39.439Z,0
2016-11-17T05:46:11.753Z,0
2016-11-17T05:46:44.075Z,0
2016-11-17T05:47:16.399Z,0
2016-11-17T05:47:48.709Z,0
2016-11-17T05:48:21.027Z,0
2016-11-17T05:48:53.349Z,0
2016-11-17T05:49:25.718Z,0
2016-11-17T05:49:58.036Z,0
2016-11-17T05:50:30.380Z,0
2016-11-17T05:51:02.722Z,0
2016-11-17T05:51:35.027Z,0
2016-11-17T05:52:07.347Z,0
2016-11-17T05:52:39.657Z,0
2016-11-17T05:53:11.973Z,0
2016-11-17T05:53:44.281Z,0
2016-11-17T05:54:16.591Z,0
2016-11-17T05:54:48.938Z,0
2016-11-17T05:55:21.253Z,0
2016-11-17T05:55:53.581Z,0
2016-11-17T05:56:25.906Z,0
2016-11-17T05:56:58.257Z,0
2016-11-17T05:57:30.571Z,0
2016-11-17T05:58:02.901Z,0
2016-11-17T05:58:35.226Z,0
2016-11-17T05:59:07.539Z,0
2016-11-17T05:59:40.544Z,0
2016-11-17T06:00:12.857Z,0
2016-11-17T06:00:45.167Z,0
2016-11-17T06:01:17.494Z,0
2016-11-17T06:01:49.805Z,0
2016-11-17T06:02:22.125Z,0
2016-11-17T06:02:54.458Z,0
2016-11-17T06:03:26.774Z,0
2016-11-17T06:03:59.096Z,0
2016-11-17T06:04:31.420Z,0
2016-11-17T06:05:03.811Z,0
2016-11-17T06:05:36.125Z,0
2016-11-17T06:06:08.438Z,0
2016-11-17T06:06:40.760Z,0
2016-11-17T06:07:13.084Z,0
2016-11-17T06:07:45.386Z,0
2016-11-17T06:08:17.711Z,0
2016-11-17T06:08:50.042Z,0
2016-11-17T06:09:22.363Z,0
2016-11-17T06:09:54.669Z,0
2016-11-17T06:10:26.998Z,0
2016-11-17T06:10:59.305Z,0
2016-11-17T06:11:31.608Z,0
2016-11-17T06:12:03.924Z,0
2016-11-17T06:12:36.272Z,0
2016-11-17T06:13:08.589Z,0
2016-11-17T06:13:40.901Z,0
2016-11-17T06:14:13.218Z,0
2016-11-17T06:14:45.671Z,0
2016-11-17T06:15:17.982Z,0
2016-11-17T06:15:50.301Z,0
2016-11-17T06:16:22.674Z,0
2016-11-17T06:16:54.984Z,0
2016-11-17T06:17:27.294Z,0
2016-11-17T06:17:59.623Z,0
2016-11-17T06:18:31.952Z,0
2016-11-17T06:19:04.273Z,0
2016-11-17T06:19:36.587Z,0
2016-11-17T06:20:08.908Z,0
2016-11-17T06:20:41.210Z,0
2016-11-17T06:21:13.540Z,0
2016-11-17T06:21:45.857Z,0
2016-11-17T06:22:18.222Z,0
2016-11-17T06:22:50.548Z,0
2016-11-17T06:23:22.875Z,0
2016-11-17T06:23:55.190Z,0
2016-11-17T06:24:27.501Z,0
2016-11-17T06:24:59.808Z,0
2016-11-17T06:25:32.121Z,0
2016-11-17T06:26:04.439Z,0
2016-11-17T06:26:36.770Z,0
2016-11-17T06:27:09.082Z,0
2016-11-17T06:27:41.398Z,0
2016-11-17T06:28:13.721Z,0
2016-11-17T06:28:46.029Z,0
2016-11-17T06:29:18.331Z,0
2016-11-17T06:29:50.640Z,0
2016-11-17T06:30:22.959Z,0
2016-11-17T06:30:55.283Z,0
2016-11-17T06:31:27.645Z,0
2016-11-17T06:31:59.996Z,0
2016-11-17T06:32:32.295Z,0
2016-11-17T06:33:04.649Z,0
2016-11-17T06:33:36.957Z,0
2016-11-17T06:34:09.280Z,0
2016-11-17T06:34:41.597Z,0
2016-11-17T06:35:15.059Z,4
2016-11-17T06:35:47.357Z,4
2016-11-17T06:36:19.719Z,4
2016-11-17T06:36:52.081Z,4
2016-11-17T06:37:24.407Z,4
2016-11-17T06:37:56.720Z,4
2016-11-17T06:38:29.078Z,4
2016-11-17T06:39:02.290Z,0
2016-11-17T06:39:34.614Z,4
2016-11-17T06:40:06.929Z,4
2016-11-17T06:40:39.240Z,4
2016-11-17T06:41:11.599Z,4
2016-11-17T06:41:45.448Z,4
2016-11-17T06:42:17.782Z,8
2016-11-17T06:42:50.117Z,4
2016-11-17T06:43:22.476Z,4
2016-11-17T06:43:54.802Z,8
2016-11-17T06:44:27.124Z,8
2016-11-17T06:44:59.443Z,12
2016-11-17T06:45:31.754Z,8
2016-11-17T06:46:05.027Z,12
2016-11-17T06:46:38.746Z,12
2016-11-17T06:47:18.070Z,16
2016-11-17T06:47:54.569Z,16
2016-11-17T06:48:28.341Z,16
2016-11-17T06:49:02.188Z,20
2016-11-17T06:49:34.780Z,20
2016-11-17T06:50:08.482Z,20
2016-11-17T06:50:42.734Z,16
2016-11-17T06:51:16.117Z,20
2016-11-17T06:51:51.370Z,24
2016-11-17T06:52:27.575Z,24
2016-11-17T06:53:01.092Z,24
2016-11-17T06:53:34.502Z,28
2016-11-17T06:54:08.827Z,32
2016-11-17T06:54:43.064Z,32
2016-11-17T06:55:16.718Z,32
2016-11-17T06:55:50.057Z,32
2016-11-17T06:56:22.740Z,32
2016-11-17T06:56:55.081Z,32
2016-11-17T06:57:27.431Z,36
2016-11-17T06:57:59.771Z,36
2016-11-17T06:58:32.968Z,40
2016-11-17T06:59:05.287Z,44
2016-11-17T06:59:38.541Z,44
2016-11-17T07:00:10.859Z,48
2016-11-17T07:00:43.171Z,48
2016-11-17T07:01:15.490Z,52
2016-11-17T07:01:47.801Z,52
2016-11-17T07:02:20.147Z,56
2016-11-17T07:02:53.416Z,52
2016-11-17T07:03:25.740Z,52
2016-11-17T07:04:03.734Z,56
2016-11-17T07:04:39.049Z,56
2016-11-17T07:05:12.917Z,56
2016-11-17T07:05:46.466Z,60
2016-11-17T07:06:19.424Z,64
2016-11-17T07:06:51.727Z,60
2016-11-17T07:07:24.050Z,64
2016-11-17T07:07:56.414Z,68
2016-11-17T07:08:28.756Z,68
2016-11-17T07:09:01.076Z,68
2016-11-17T07:09:33.395Z,68
2016-11-17T07:10:05.697Z,68
2016-11-17T07:10:38.015Z,68
2016-11-17T07:11:10.319Z,68
2016-11-17T07:11:42.688Z,72
2016-11-17T07:12:16.551Z,68
2016-11-17T07:12:49.162Z,68
2016-11-17T07:13:21.477Z,72
2016-11-17T07:13:55.488Z,72
2016-11-17T07:14:27.795Z,76
2016-11-17T07:15:00.114Z,80
2016-11-17T07:15:32.433Z,80
2016-11-17T07:16:04.766Z,84
2016-11-17T07:16:37.068Z,88
2016-11-17T07:17:09.385Z,88
2016-11-17T07:17:41.697Z,96
2016-11-17T07:18:14.017Z,104
2016-11-17T07:18:46.337Z,116
2016-11-17T07:19:18.656Z,128
2016-11-17T07:19:50.973Z,136
2016-11-17T07:20:23.284Z,152
2016-11-17T07:20:55.614Z,164
2016-11-17T07:21:27.927Z,176
2016-11-17T07:22:02.188Z,172
2016-11-17T07:22:40.025Z,172
2016-11-17T07:23:12.343Z,172
2016-11-17T07:23:49.173Z,168
2016-11-17T07:24:22.429Z,172
2016-11-17T07:24:54.774Z,172
2016-11-17T07:25:27.101Z,180
2016-11-17T07:25:59.423Z,204
2016-11-17T07:26:31.748Z,216
2016-11-17T07:27:04.067Z,220
2016-11-17T07:27:36.384Z,212
2016-11-17T07:28:08.693Z,220
2016-11-17T07:28:41.014Z,236
2016-11-17T07:29:13.349Z,256
2016-11-17T07:29:45.683Z,272
2016-11-17T07:30:18.027Z,264
2016-11-17T07:30:50.357Z,252
2016-11-17T07:31:22.704Z,236
2016-11-17T07:31:55.035Z,224
2016-11-17T07:32:27.353Z,212
2016-11-17T07:32:59.651Z,212
2016-11-17T07:33:31.954Z,212
2016-11-17T07:34:04.273Z,212
2016-11-17T07:34:36.574Z,216
2016-11-17T07:35:08.893Z,216
2016-11-17T07:35:42.075Z,216
2016-11-17T07:36:14.391Z,224
2016-11-17T07:36:46.709Z,232
2016-11-17T07:37:19.016Z,240
2016-11-17T07:37:51.343Z,244
2016-11-17T07:38:23.666Z,256
2016-11-17T07:38:56.003Z,268
2016-11-17T07:39:28.327Z,280
2016-11-17T07:40:00.642Z,288
2016-11-17T07:40:32.944Z,288
2016-11-17T07:41:05.265Z,292
2016-11-17T07:41:38.467Z,292
2016-11-17T07:42:10.780Z,292
2016-11-17T07:42:43.104Z,280
2016-11-17T07:43:15.437Z,268
2016-11-17T07:43:47.754Z,260
2016-11-17T07:44:20.079Z,256
2016-11-17T07:44:52.387Z,256
2016-11-17T07:45:24.719Z,264
2016-11-17T07:45:57.069Z,264
2016-11-17T07:46:29.388Z,260
2016-11-17T07:47:01.708Z,260
2016-11-17T07:47:34.027Z,256
2016-11-17T07:48:06.342Z,244
2016-11-17T07:48:38.649Z,236
2016-11-17T07:49:10.957Z,224
2016-11-17T07:49:43.280Z,220
2016-11-17T07:50:15.603Z,220
2016-11-17T07:50:47.930Z,220
2016-11-17T07:51:20.266Z,216
2016-11-17T07:51:52.573Z,216
2016-11-17T07:52:24.899Z,220
2016-11-17T07:52:57.224Z,228
2016-11-17T07:53:29.547Z,232
2016-11-17T07:54:01.869Z,240
2016-11-17T07:54:34.200Z,244
2016-11-17T07:55:06.519Z,256